createdAt,value
2018-06-24T13:48:26.829Z,48.60
2018-06-24T13:50:32.269Z,49.00
2018-06-24T13:52:34.864Z,48.90
2018-06-24T13:54:37.548Z,48.40
2018-06-24T13:56:41.028Z,47.00
2018-06-24T13:58:44.816Z,47.00
2018-06-24T14:00:47.581Z,46.30
2018-06-24T14:02:50.187Z,45.70
2018-06-24T14:04:53.547Z,45.10
2018-06-24T14:06:56.307Z,44.90
2018-06-24T14:08:58.883Z,44.60
2018-06-24T14:11:01.468Z,44.40
2018-06-24T14:13:04.091Z,44.10
2018-06-24T14:15:06.676Z,43.50
2018-06-24T14:17:09.260Z,43.00
2018-06-24T14:19:11.863Z,42.70
2018-06-24T14:21:14.448Z,42.60
2018-06-24T14:23:17.120Z,42.30
2018-06-24T14:25:19.672Z,42.00
2018-06-24T14:27:22.278Z,41.90
2018-06-24T14:29:24.956Z,42.20
2018-06-24T14:31:29.172Z,40.80
2018-06-24T14:33:32.528Z,40.60
2018-06-24T14:35:35.114Z,40.40
2018-06-24T14:37:37.735Z,40.30
2018-06-24T14:39:40.317Z,40.10
2018-06-24T14:41:42.907Z,39.90
2018-06-24T14:43:45.551Z,39.60
2018-06-24T14:45:48.912Z,39.40
2018-06-24T14:47:51.596Z,39.20
2018-06-24T14:49:54.478Z,39.00
2018-06-24T14:51:57.108Z,38.80
2018-06-24T14:53:59.725Z,38.80
2018-06-24T14:56:03.118Z,38.40
2018-06-24T14:58:05.697Z,38.30
2018-06-24T15:00:08.276Z,38.30
2018-06-24T15:02:12.419Z,37.80
2018-06-24T15:04:14.999Z,37.80
2018-06-24T15:06:17.625Z,37.80
2018-06-24T15:08:20.427Z,37.70
2018-06-24T15:10:23.768Z,37.70
2018-06-24T15:12:26.348Z,37.60
2018-06-24T15:14:29.250Z,37.60
2018-06-24T15:16:31.926Z,37.60
2018-06-24T15:18:34.516Z,37.40
2018-06-24T15:20:37.892Z,37.00
2018-06-24T15:22:40.488Z,36.90
2018-06-24T15:24:43.839Z,36.50
2018-06-24T15:26:46.474Z,36.40
2018-06-24T15:28:49.143Z,36.40
2018-06-24T15:30:52.508Z,36.40
2018-06-24T15:32:55.995Z,36.60
2018-06-24T15:34:58.596Z,36.40
2018-06-24T15:37:01.937Z,36.80
2018-06-24T15:39:04.765Z,36.80
2018-06-24T15:41:08.106Z,37.00
2018-06-24T15:43:11.447Z,36.80
2018-06-24T15:45:14.840Z,36.80
2018-06-24T15:47:18.192Z,36.80
2018-06-24T15:49:20.799Z,36.80
2018-06-24T15:51:24.312Z,36.70
2018-06-24T15:53:27.652Z,36.60
2018-06-24T15:55:30.237Z,36.50
2018-06-24T15:57:32.934Z,36.70
2018-06-24T15:59:36.283Z,36.70
2018-06-24T16:01:38.871Z,36.70
2018-06-24T16:03:41.503Z,36.80
2018-06-24T16:05:44.078Z,36.90
2018-06-24T16:07:46.656Z,36.90
2018-06-24T16:09:49.382Z,36.70
2018-06-24T16:11:53.459Z,36.80
2018-06-24T16:13:56.033Z,36.70
2018-06-24T16:15:58.904Z,36.70
2018-06-24T16:18:01.594Z,36.70
2018-06-24T16:20:04.182Z,36.70
2018-06-24T16:22:06.973Z,36.60
2018-06-24T16:24:09.615Z,36.60
2018-06-24T16:26:12.196Z,36.50
2018-06-24T16:28:15.112Z,36.50
2018-06-24T16:30:18.460Z,36.60
2018-06-24T16:32:21.031Z,36.50
2018-06-24T16:34:23.652Z,36.60
2018-06-24T16:36:26.993Z,36.90
2018-06-24T16:38:29.573Z,36.80
2018-06-24T16:40:33.103Z,36.50
2018-06-24T16:42:35.782Z,36.50
2018-06-24T16:44:39.874Z,36.30
2018-06-24T16:46:42.542Z,36.20
2018-06-24T16:48:45.116Z,36.10
2018-06-24T16:50:47.700Z,35.80
2018-06-24T16:52:52.027Z,35.50
2018-06-24T16:54:56.112Z,35.50
2018-06-24T16:56:58.695Z,35.30
2018-06-24T16:59:01.300Z,35.30
2018-06-24T17:01:04.648Z,35.60
2018-06-24T17:03:07.232Z,35.40
2018-06-24T17:05:10.139Z,35.70
2018-06-24T17:07:13.485Z,36.20
2018-06-24T17:09:16.077Z,35.80
2018-06-24T17:11:18.687Z,35.90
2018-06-24T17:13:22.071Z,36.10
2018-06-24T17:15:24.649Z,36.10
2018-06-24T17:17:28.132Z,36.60
2018-06-24T17:19:30.731Z,36.40
2018-06-24T17:21:33.321Z,36.60
2018-06-24T17:23:35.988Z,36.80
2018-06-24T17:25:38.579Z,37.00
2018-06-24T17:27:41.155Z,37.00
2018-06-24T17:29:43.881Z,37.20
2018-06-24T17:31:46.552Z,37.30
2018-06-24T17:33:50.048Z,37.60
2018-06-24T17:35:52.647Z,37.60
2018-06-24T17:37:56.115Z,37.80
2018-06-24T17:40:00.196Z,37.80
2018-06-24T17:42:02.811Z,37.80
2018-06-24T17:44:06.159Z,38.10
2018-06-24T17:46:08.740Z,38.00
2018-06-24T17:48:11.425Z,38.10
2018-06-24T17:50:14.058Z,38.20
2018-06-24T17:52:16.689Z,38.40
2018-06-24T17:54:19.498Z,38.40
2018-06-24T17:56:22.836Z,38.60
2018-06-24T17:58:25.538Z,38.60
2018-06-24T18:00:28.223Z,38.70
2018-06-24T18:02:31.587Z,38.80
2018-06-24T18:04:34.251Z,38.70
2018-06-24T18:06:36.895Z,38.80
2018-06-24T18:08:39.496Z,38.80
2018-06-24T18:10:42.068Z,38.90
2018-06-24T18:12:44.779Z,38.90
2018-06-24T18:14:48.864Z,38.90
2018-06-24T18:16:51.461Z,39.00
2018-06-24T18:18:55.776Z,39.10
2018-06-24T18:20:58.451Z,39.10
2018-06-24T18:23:01.032Z,39.10
2018-06-24T18:25:04.399Z,38.60
2018-06-24T18:27:06.975Z,39.20
2018-06-24T18:29:09.584Z,39.10
2018-06-24T18:31:12.342Z,39.20
2018-06-24T18:33:14.990Z,39.80
2018-06-24T18:35:18.287Z,39.30
2018-06-24T18:37:20.904Z,39.30
2018-06-24T18:39:24.259Z,39.40
2018-06-24T18:41:26.836Z,39.40
2018-06-24T18:43:30.961Z,39.50
2018-06-24T18:45:33.551Z,39.40
2018-06-24T18:47:36.926Z,39.60
2018-06-24T18:49:39.529Z,39.60
2018-06-24T18:51:42.120Z,39.60
2018-06-24T18:53:44.695Z,39.70
2018-06-24T18:55:47.344Z,39.60
2018-06-24T18:57:50.713Z,39.70
2018-06-24T18:59:53.311Z,39.50
2018-06-24T19:01:56.782Z,39.60
2018-06-24T19:04:01.013Z,39.70
2018-06-24T19:06:04.354Z,39.70
2018-06-24T19:08:07.165Z,39.70
2018-06-24T19:10:11.243Z,39.70
2018-06-24T19:12:13.831Z,39.70
2018-06-24T19:14:16.564Z,39.70
2018-06-24T19:16:19.176Z,39.70
2018-06-24T19:18:21.778Z,39.80
2018-06-24T19:20:25.892Z,39.80
2018-06-24T19:22:29.236Z,39.80
2018-06-24T19:24:31.811Z,39.70
2018-06-24T19:26:34.433Z,39.70
2018-06-24T19:28:37.783Z,39.80
2018-06-24T19:30:40.489Z,39.60
2018-06-24T19:32:43.101Z,39.70
2018-06-24T19:34:45.680Z,39.70
2018-06-24T19:36:48.292Z,39.70
2018-06-24T19:38:50.930Z,39.70
2018-06-24T19:40:53.516Z,39.70
2018-06-24T19:42:56.164Z,39.70
2018-06-24T19:44:59.536Z,39.90
2018-06-24T19:47:02.883Z,40.60
2018-06-24T19:49:05.460Z,39.90
2018-06-24T19:51:08.065Z,40.00
2018-06-24T19:53:10.743Z,40.00
2018-06-24T19:55:14.923Z,40.10
2018-06-24T19:57:17.562Z,40.00
2018-06-24T19:59:20.903Z,40.90
2018-06-24T20:01:23.471Z,40.10
2018-06-24T20:03:26.273Z,40.20
2018-06-24T20:05:28.951Z,40.30
2018-06-24T20:07:33.032Z,40.40
2018-06-24T20:09:35.653Z,40.90
2018-06-24T20:11:39.000Z,40.50
2018-06-24T20:13:41.636Z,40.40
2018-06-24T20:15:44.475Z,40.50
2018-06-24T20:17:47.036Z,40.60
2018-06-24T20:19:49.735Z,40.70
2018-06-24T20:21:52.371Z,40.60
2018-06-24T20:23:55.083Z,40.70
2018-06-24T20:25:57.663Z,40.90
2018-06-24T20:28:01.250Z,40.90
2018-06-24T20:30:05.366Z,40.90
2018-06-24T20:32:07.955Z,40.90
2018-06-24T20:34:11.434Z,40.90
2018-06-24T20:36:14.016Z,40.90
2018-06-24T20:38:17.368Z,40.90
2018-06-24T20:40:19.981Z,40.80
2018-06-24T20:42:22.553Z,40.80
2018-06-24T20:44:25.935Z,40.90
2018-06-24T20:46:29.443Z,41.10
2018-06-24T20:48:32.824Z,41.10
2018-06-24T20:50:36.925Z,41.20
2018-06-24T20:52:39.634Z,41.20
2018-06-24T20:54:42.224Z,41.20
2018-06-24T20:56:44.808Z,41.20
